Main page
METAR-TAF:

METAR-TAF

Airports :

Fasa, Iran

latitude: 28-58N, longitude: 053-41E, elevation: 1383 m

Current weather observation

The report was made 31 minutes ago, at 20:00 UTC
Wind 8 kt from the North
Temperature 24°C
Humidity 36%
Pressure 1017 hPa
Visibility: 7000 m
Broken clouds at a height of 4000 ft
Overcast at a height of 10000 ft

METAR: OISF 302000Z 01008KT 7000 BKN040 OVC100 24/08 Q1017

Time: 01:01 (20:31 UTC)


TAF: missing

Weather observations and forecasts of more than 4000 airports (METAR and TAF reports).

The available stations are represented by yellow and red dots on the map.

Hover mouse over dot to see the name of the station.

Then click to see weather observations and forecasts.

To change the map : click on the green buttons with a black cross to zoom in, on the green button with a dash to zoom out, or on the green arrows for adjacent maps.


METAR-TAF: